Time;durP1;ratioP1;P1;durP2;ratioP2;P2;SDS_P1;SDS_P2;PMS_P1;PMS_P2;Temp;Humidity;BMP_temperature;BMP_pressure;BME280_temperature;BME280_humidity;BME280_pressure;Samples;Min_cycle;Max_cycle;Signal;HPM_P1;HPM_P2
2021/07/20 00:01:25;;;;;;;15.30;13.70;;;;;;;21.89;81.61;93921.08;828203;71;29720;-74
2021/07/20 00:31:21;;;;;;;15.60;14.10;;;;;;;21.87;81.22;93924.12;828631;71;29710;-74
2021/07/20 00:46:15;;;;;;;15.30;13.90;;;;;;;21.80;80.54;93910.16;827884;71;29850;-73
2021/07/20 01:01:18;;;;;;;15.97;14.37;;;;;;;21.69;80.47;93901.89;833576;71;32749;-73
2021/07/20 01:16:43;;;;;;;15.10;13.43;;;;;;;21.55;80.84;93904.69;826990;71;32720;-72
2021/07/20 01:31:29;;;;;;;15.60;14.00;;;;;;;21.42;81.12;93904.75;828047;71;29710;-72
2021/07/20 01:46:20;;;;;;;15.00;13.53;;;;;;;21.31;80.34;93914.56;828070;71;29863;-74
2021/07/20 01:47:27;;;;;;;14.70;13.20;;;;;;;21.27;80.41;93918.56;808315;73;26801;-72
2021/07/20 02:16:50;;;;;;;16.07;14.33;;;;;;;21.36;79.86;93924.34;826577;70;33364;-73
2021/07/20 02:31:37;;;;;;;19.47;14.57;;;;;;;21.37;79.80;93923.22;817096;71;32759;-76
2021/07/20 02:46:21;;;;;;;16.10;14.40;;;;;;;21.29;79.75;93920.30;825990;70;32730;-73
2021/07/20 03:16:12;;;;;;;18.20;14.30;;;;;;;21.19;78.68;93935.66;833529;71;30333;-73
2021/07/20 03:31:43;;;;;;;21.50;17.57;;;;;;;21.47;77.23;93942.36;827706;71;33359;-73
2021/07/20 03:46:29;;;;;;;21.90;16.60;;;;;;;22.80;72.87;93959.84;833038;70;33475;-76
2021/07/20 04:01:34;;;;;;;21.10;18.00;;;;;;;22.77;71.10;93986.02;833624;71;33353;-76
2021/07/20 04:16:13;;;;;;;21.00;18.10;;;;;;;22.20;72.95;93997.98;827955;71;30717;-73
2021/07/20 04:31:10;;;;;;;22.67;19.10;;;;;;;21.91;74.18;93989.59;829324;71;29729;-75
2021/07/20 04:46:21;;;;;;;23.53;19.17;;;;;;;21.89;74.22;93995.30;833836;71;30771;-73
2021/07/20 05:01:30;;;;;;;22.03;19.60;;;;;;;21.98;72.94;93999.00;833900;71;32874;-74
2021/07/20 05:16:17;;;;;;;21.20;17.07;;;;;;;22.16;72.43;94001.20;827500;71;31857;-74
2021/07/20 05:31:15;;;;;;;22.27;18.10;;;;;;;22.63;71.08;94008.69;827892;71;30700;-71
2021/07/20 05:46:11;;;;;;;22.07;19.23;;;;;;;23.23;68.66;94018.06;833864;71;30293;-73
2021/07/20 06:01:18;;;;;;;22.43;19.60;;;;;;;23.82;66.85;94029.80;828223;71;30472;-73
2021/07/20 06:16:10;;;;;;;25.07;21.77;;;;;;;24.94;65.58;94024.34;828158;71;30298;-74
2021/07/20 06:31:10;;;;;;;18.70;16.40;;;;;;;27.43;58.00;94041.88;827999;71;30334;-74
2021/07/20 06:46:23;;;;;;;17.60;15.80;;;;;;;27.06;56.81;94052.17;827324;71;32809;-74
2021/07/20 07:01:15;;;;;;;19.80;16.60;;;;;;;26.94;57.67;94052.88;828705;71;30264;-73
2021/07/20 07:16:08;;;;;;;15.10;13.20;;;;;;;27.15;56.56;94057.25;828460;71;29739;-75
2021/07/20 07:31:22;;;;;;;16.03;14.33;;;;;;;27.36;56.21;94067.59;833960;71;29773;-74
2021/07/20 07:46:20;;;;;;;14.33;12.90;;;;;;;27.51;55.53;94078.34;827529;71;32791;-72
2021/07/20 08:01:32;;;;;;;13.50;12.20;;;;;;;27.81;54.37;94067.31;832541;70;32843;-73
2021/07/20 08:16:19;;;;;;;12.40;11.20;;;;;;;28.37;53.34;94061.42;828044;71;29512;-74
2021/07/20 08:31:16;;;;;;;12.73;11.53;;;;;;;28.68;52.09;94062.03;827129;71;32799;-74
2021/07/20 08:46:40;;;;;;;13.97;12.40;;;;;;;29.03;51.01;94061.14;826376;70;32738;-73
2021/07/20 09:16:29;;;;;;;12.50;11.33;;;;;;;28.48;52.42;94065.27;823096;71;32711;-74
2021/07/20 09:31:22;;;;;;;12.43;11.33;;;;;;;28.31;51.29;94069.23;833782;71;33004;-76
2021/07/20 09:46:41;;;;;;;12.00;11.00;;;;;;;28.65;50.75;94055.34;833505;70;32802;-73
2021/07/20 10:01:29;;;;;;;13.50;12.20;;;;;;;30.13;47.14;94037.47;827428;71;33220;-73
2021/07/20 10:16:26;;;;;;;11.97;10.87;;;;;;;31.49;44.61;94040.59;833931;71;32800;-75
2021/07/20 10:32:02;;;;;;;11.53;10.57;;;;;;;33.03;41.71;94038.03;828081;71;30278;-75
2021/07/20 10:46:20;;;;;;;11.20;10.10;;;;;;;32.63;40.14;94024.51;828280;71;32663;-77
2021/07/20 11:16:31;;;;;;;13.67;12.37;;;;;;;31.31;41.48;94006.44;825809;70;32931;-77
2021/07/20 11:31:48;;;;;;;12.60;11.50;;;;;;;31.09;42.08;93998.19;835030;71;32867;-77
2021/07/20 11:46:41;;;;;;;12.87;11.77;;;;;;;31.77;40.38;94004.23;828402;71;33286;-76
2021/07/20 12:02:01;;;;;;;14.27;12.97;;;;;;;31.84;41.17;93990.45;827161;71;31821;-74
2021/07/20 12:16:45;;;;;;;14.80;13.40;;;;;;;32.42;40.11;93981.75;822636;71;30872;-78
2021/07/20 12:31:16;;;;;;;13.10;11.90;;;;;;;32.41;39.95;93972.85;828165;71;27720;-73
2021/07/20 12:46:40;;;;;;;11.77;10.77;;;;;;;32.76;38.14;93969.33;827528;71;30810;-75
2021/07/20 13:01:16;;;;;;;11.80;10.80;;;;;;;32.58;38.46;93960.46;828061;71;28457;-75
2021/07/20 13:16:27;;;;;;;15.90;14.40;;;;;;;31.19;42.40;93978.13;828403;71;27674;-75
2021/07/20 13:31:36;;;;;;;14.33;12.93;;;;;;;30.74;42.54;93981.75;828225;71;28799;-75
2021/07/20 13:46:26;;;;;;;14.97;13.47;;;;;;;30.54;43.10;93983.27;834008;71;27661;-75
2021/07/20 14:01:19;;;;;;;13.90;12.60;;;;;;;30.30;42.66;93995.69;828151;71;27747;-75
2021/07/20 14:16:17;;;;;;;9.03;8.30;;;;;;;29.87;41.38;94009.53;833901;71;27674;-75
2021/07/20 14:31:16;;;;;;;9.60;8.70;;;;;;;29.56;43.10;94016.02;828029;71;28696;-75
2021/07/20 14:46:44;;;;;;;10.60;9.60;;;;;;;29.20;45.55;94017.41;827023;70;31222;-76
2021/07/20 15:16:26;;;;;;;14.60;13.30;;;;;;;28.65;48.37;94046.67;827275;71;31797;-78
2021/07/20 15:31:34;;;;;;;13.53;12.23;;;;;;;28.31;48.14;94045.53;834818;70;32274;-76
2021/07/20 16:01:13;;;;;;;11.33;10.33;;;;;;;27.72;47.88;94065.14;828040;71;29287;-76
2021/07/20 16:16:20;;;;;;;12.50;11.20;;;;;;;27.37;50.17;94086.62;828082;71;30256;-74
2021/07/20 16:31:09;;;;;;;12.23;10.93;;;;;;;27.14;51.27;94076.51;828169;71;29706;-77
2021/07/20 16:46:14;;;;;;;13.23;11.93;;;;;;;26.87;52.35;94100.11;833971;71;32053;-75
2021/07/20 17:01:21;;;;;;;12.67;11.47;;;;;;;;;;833821;71;33176;-75
2021/07/20 17:16:07;;;;;;;12.50;10.80;;;;;;;;;;828288;71;29783;-74
2021/07/20 17:31:18;;;;;;;11.47;10.37;;;;;;;25.57;54.43;94154.14;829384;71;29800;-76
2021/07/20 17:46:34;;;;;;;10.87;9.77;;;;;;;25.30;54.96;94171.33;827415;71;33168;-75
2021/07/20 18:16:21;;;;;;;11.90;10.80;;;;;;;24.69;57.67;94213.65;834146;71;33127;-77
2021/07/20 18:31:08;;;;;;;13.23;11.93;;;;;;;24.43;58.83;94244.28;828530;71;29821;-74
2021/07/20 18:46:21;;;;;;;13.37;12.07;;;;;;;24.20;59.88;94271.64;800326;74;33103;-77
2021/07/20 19:01:10;;;;;;;13.50;12.10;;;;;;;23.99;60.21;94285.02;828022;71;30865;-78
2021/07/20 19:16:36;;;;;;;13.70;12.33;;;;;;;23.78;60.43;94298.54;827934;71;30282;-76
2021/07/20 19:31:22;;;;;;;14.13;12.83;;;;;;;23.61;61.29;94313.92;827697;71;32666;-77
2021/07/20 19:46:33;;;;;;;13.80;12.47;;;;;;;23.49;62.09;94322.28;825177;71;32746;-75
2021/07/20 20:01:14;;;;;;;16.20;14.70;;;;;;;23.35;62.56;94323.72;828449;71;29751;-77
2021/07/20 20:16:12;;;;;;;14.00;12.60;;;;;;;23.21;63.34;94338.36;833974;71;30304;-76
2021/07/20 20:31:24;;;;;;;11.70;10.70;;;;;;;23.08;63.38;94329.11;833952;71;29731;-75
2021/07/20 20:46:44;;;;;;;13.37;12.17;;;;;;;22.96;63.56;94331.47;829135;71;32862;-76
2021/07/20 21:16:23;;;;;;;12.97;11.77;;;;;;;22.70;64.61;94339.84;826496;70;32903;-76
2021/07/20 21:31:09;;;;;;;11.80;10.70;;;;;;;22.67;64.85;94358.53;833717;71;30354;-74
2021/07/20 21:46:12;;;;;;;11.83;10.73;;;;;;;22.54;65.35;94382.87;833808;71;32440;-75
2021/07/20 22:01:12;;;;;;;10.60;9.50;;;;;;;22.46;65.84;94383.17;833788;71;30370;-76
2021/07/20 22:16:27;;;;;;;11.37;10.27;;;;;;;22.38;66.75;94388.45;833620;71;32836;-74
2021/07/20 22:31:10;;;;;;;9.33;8.43;;;;;;;22.27;66.89;94387.55;828010;71;30354;-76
2021/07/20 22:46:15;;;;;;;10.60;9.40;;;;;;;22.12;66.27;94384.47;827981;71;29979;-75
2021/07/20 23:01:11;;;;;;;13.57;9.70;;;;;;;22.03;65.48;94377.31;828211;71;29690;-76
2021/07/20 23:16:09;;;;;;;11.47;10.27;;;;;;;21.92;64.63;94372.61;828021;71;29706;-77
2021/07/20 23:31:18;;;;;;;11.97;10.70;;;;;;;21.78;64.73;94375.11;828324;71;33315;-75
2021/07/20 23:46:38;;;;;;;13.83;11.37;;;;;;;21.78;65.31;94387.89;832678;70;32308;-75
